Time;durP1;ratioP1;P1;durP2;ratioP2;P2;SDS_P1;SDS_P2;PMS_P1;PMS_P2;Temp;Humidity;BMP_temperature;BMP_pressure;BME280_temperature;BME280_humidity;BME280_pressure;Samples;Min_cycle;Max_cycle;Signal;HPM_P1;HPM_P2
2022/01/08 00:00:45;;;;;;;24.85;15.55;;;1.60;99.90;;;;;;2113853;28;20387;-76
2022/01/08 00:01:45;;;;;;;25.35;15.85;;;1.50;99.90;;;;;;2112552;28;20058;-72
2022/01/08 00:02:46;;;;;;;24.00;14.95;;;1.50;99.90;;;;;;2104466;28;20598;-70
2022/01/08 00:03:48;;;;;;;25.30;15.85;;;1.40;99.90;;;;;;2113188;28;20055;-69
2022/01/08 00:04:49;;;;;;;25.33;16.23;;;1.40;99.90;;;;;;2113410;28;20084;-73
2022/01/08 00:05:50;;;;;;;25.33;15.75;;;1.40;99.90;;;;;;2100866;28;20100;-71
2022/01/08 00:06:51;;;;;;;26.50;16.35;;;1.40;99.90;;;;;;2095689;28;20118;-72
2022/01/08 00:07:51;;;;;;;26.98;16.88;;;1.40;99.90;;;;;;2105449;28;20078;-70
2022/01/08 00:08:52;;;;;;;26.58;16.92;;;1.40;99.90;;;;;;2100772;28;20035;-72
2022/01/08 00:09:54;;;;;;;31.48;18.70;;;1.40;99.90;;;;;;2101927;28;20119;-70
2022/01/08 00:10:55;;;;;;;32.17;18.75;;;1.40;99.90;;;;;;2104936;28;20012;-71
2022/01/08 00:11:58;;;;;;;32.20;18.88;;;1.40;99.90;;;;;;2112043;28;20055;-73
2022/01/08 00:13:04;;;;;;;32.40;19.52;;;1.50;99.90;;;;;;2109701;28;20522;-72
2022/01/08 00:14:05;;;;;;;33.28;20.08;;;1.60;99.90;;;;;;2116936;27;20403;-70
2022/01/08 00:15:07;;;;;;;35.30;21.15;;;1.60;99.90;;;;;;2116492;28;20059;-73
2022/01/08 00:16:08;;;;;;;33.78;20.98;;;1.60;99.90;;;;;;2121372;28;20051;-72
2022/01/08 00:17:09;;;;;;;38.95;22.30;;;1.70;99.90;;;;;;2109743;28;20020;-72
2022/01/08 00:18:10;;;;;;;37.13;21.73;;;1.70;99.90;;;;;;2106326;28;20705;-71
2022/01/08 00:19:11;;;;;;;36.25;22.20;;;1.80;99.90;;;;;;2116866;28;20035;-71
2022/01/08 00:20:13;;;;;;;35.58;21.58;;;1.80;99.90;;;;;;2105921;28;20055;-73
2022/01/08 00:21:14;;;;;;;33.10;19.98;;;1.90;99.90;;;;;;2117427;28;20031;-73
2022/01/08 00:22:15;;;;;;;34.22;20.88;;;1.90;99.90;;;;;;2105102;28;20085;-73
2022/01/08 00:23:16;;;;;;;33.90;20.83;;;1.90;99.90;;;;;;2101562;28;20059;-71
2022/01/08 00:24:16;;;;;;;34.72;20.95;;;2.00;99.90;;;;;;2113661;28;20765;-72
2022/01/08 00:25:18;;;;;;;37.03;21.90;;;2.00;99.90;;;;;;2109116;28;20565;-72
2022/01/08 00:26:18;;;;;;;35.50;22.17;;;2.10;99.90;;;;;;2105444;28;20040;-72
2022/01/08 00:27:21;;;;;;;35.78;21.52;;;2.10;99.90;;;;;;2108863;28;20071;-72
2022/01/08 00:28:21;;;;;;;34.08;21.45;;;2.10;99.90;;;;;;2090839;28;20041;-71
2022/01/08 00:29:23;;;;;;;34.05;20.70;;;2.20;99.90;;;;;;2109381;28;20028;-71
2022/01/08 00:30:24;;;;;;;31.40;20.27;;;2.20;99.90;;;;;;2114351;28;20511;-72
2022/01/08 00:31:25;;;;;;;35.30;21.20;;;2.20;99.90;;;;;;2113085;28;20026;-71
2022/01/08 00:32:26;;;;;;;37.50;21.85;;;2.20;99.90;;;;;;2097804;28;20420;-73
2022/01/08 00:33:27;;;;;;;35.60;22.02;;;2.20;99.90;;;;;;2114098;28;20114;-70
2022/01/08 00:34:28;;;;;;;34.63;21.67;;;2.20;99.90;;;;;;2124117;27;20031;-73
2022/01/08 00:35:31;;;;;;;32.67;21.17;;;2.20;99.90;;;;;;2120409;27;20023;-72
2022/01/08 00:36:32;;;;;;;32.90;20.17;;;2.20;99.90;;;;;;2115450;28;20020;-72
2022/01/08 00:37:34;;;;;;;32.65;20.48;;;2.20;99.90;;;;;;2110852;28;20490;-70
2022/01/08 00:38:35;;;;;;;32.60;20.67;;;2.20;99.90;;;;;;2114363;28;20024;-73
2022/01/08 00:39:37;;;;;;;32.10;20.33;;;2.30;99.90;;;;;;2110879;28;20023;-73
2022/01/08 00:40:38;;;;;;;31.50;19.50;;;2.30;99.90;;;;;;2114814;28;20125;-71
2022/01/08 00:41:39;;;;;;;31.40;19.70;;;2.30;99.90;;;;;;2107169;28;20024;-72
2022/01/08 00:42:40;;;;;;;31.05;19.42;;;2.30;99.90;;;;;;2113780;28;20012;-73
2022/01/08 00:43:43;;;;;;;30.25;19.42;;;2.30;99.90;;;;;;2111766;28;20115;-72
2022/01/08 00:44:44;;;;;;;30.63;18.92;;;2.30;99.90;;;;;;2114179;28;20019;-72
2022/01/08 00:45:45;;;;;;;30.20;19.42;;;2.30;99.90;;;;;;2113439;28;20428;-70
2022/01/08 00:46:47;;;;;;;30.63;18.75;;;2.30;99.90;;;;;;2116199;28;20031;-70
2022/01/08 00:47:48;;;;;;;28.83;18.50;;;2.30;99.90;;;;;;2115754;28;20031;-71
2022/01/08 00:48:49;;;;;;;25.90;17.20;;;2.30;99.90;;;;;;2112417;28;20016;-73
2022/01/08 00:49:53;;;;;;;26.77;16.90;;;2.30;99.90;;;;;;2114842;28;20454;-72
2022/01/08 00:50:53;;;;;;;26.65;17.15;;;2.30;99.90;;;;;;2112593;27;20059;-71
2022/01/08 00:51:54;;;;;;;25.80;17.08;;;2.30;99.90;;;;;;2113810;28;20035;-73
2022/01/08 00:52:55;;;;;;;27.48;16.90;;;2.30;99.90;;;;;;2113377;28;20127;-71
2022/01/08 00:53:56;;;;;;;25.23;16.58;;;2.30;99.90;;;;;;2114235;28;20031;-71
2022/01/08 00:54:57;;;;;;;24.77;15.80;;;2.30;99.90;;;;;;2111728;28;20040;-71
2022/01/08 00:55:57;;;;;;;24.67;15.80;;;2.30;99.90;;;;;;2116932;28;20027;-70
2022/01/08 00:56:58;;;;;;;24.52;16.02;;;2.30;99.90;;;;;;2111372;28;20020;-72
2022/01/08 00:57:59;;;;;;;24.40;15.27;;;2.30;99.90;;;;;;2098348;28;20028;-73
2022/01/08 00:59:00;;;;;;;23.13;15.20;;;2.30;99.90;;;;;;2115918;28;20038;-70
2022/01/08 01:00:03;;;;;;;23.33;14.65;;;2.30;99.90;;;;;;2115539;28;20023;-70
2022/01/08 01:01:04;;;;;;;21.83;14.27;;;2.30;99.90;;;;;;2115799;28;20023;-71
2022/01/08 01:02:05;;;;;;;22.98;13.77;;;2.30;99.90;;;;;;2116393;28;20043;-71
2022/01/08 01:03:05;;;;;;;20.25;13.30;;;2.30;99.90;;;;;;2115347;28;20024;-70
2022/01/08 01:04:06;;;;;;;19.65;12.32;;;2.30;99.90;;;;;;2114717;28;20169;-72
2022/01/08 01:05:07;;;;;;;19.27;12.57;;;2.30;99.90;;;;;;2112088;28;20486;-73
2022/01/08 01:06:08;;;;;;;19.98;12.43;;;2.30;99.90;;;;;;2114679;28;20107;-72
2022/01/08 01:07:09;;;;;;;17.40;11.60;;;2.40;99.90;;;;;;2110287;28;20046;-72
2022/01/08 01:08:10;;;;;;;18.50;12.10;;;2.40;99.90;;;;;;2116529;28;20032;-74
2022/01/08 01:09:11;;;;;;;17.25;11.13;;;2.30;99.90;;;;;;2109650;28;20153;-73
2022/01/08 01:10:13;;;;;;;16.95;10.27;;;2.40;99.90;;;;;;2114775;28;20077;-71
2022/01/08 01:11:14;;;;;;;15.18;9.77;;;2.30;99.90;;;;;;2111445;28;20549;-72
2022/01/08 01:12:15;;;;;;;14.13;9.57;;;2.40;99.90;;;;;;2122620;27;20513;-73
2022/01/08 01:13:16;;;;;;;15.55;10.45;;;2.40;99.90;;;;;;2102002;28;20049;-72
2022/01/08 01:14:17;;;;;;;15.55;10.27;;;2.40;99.90;;;;;;2107603;28;20507;-71
2022/01/08 01:15:19;;;;;;;12.63;9.02;;;2.40;99.90;;;;;;2093539;28;20031;-71
2022/01/08 01:16:19;;;;;;;13.88;9.90;;;2.40;99.90;;;;;;2098163;28;20032;-72
2022/01/08 01:17:20;;;;;;;12.93;9.00;;;2.50;99.90;;;;;;2094693;28;20035;-73
2022/01/08 01:18:21;;;;;;;12.82;8.85;;;2.50;99.90;;;;;;2100462;28;20511;-73
2022/01/08 01:19:22;;;;;;;12.95;8.43;;;2.40;99.90;;;;;;2109896;28;20036;-73
2022/01/08 01:20:23;;;;;;;12.85;9.05;;;2.50;99.90;;;;;;2115842;28;20031;-72
2022/01/08 01:21:24;;;;;;;12.65;9.02;;;2.50;99.90;;;;;;2110633;28;20114;-71
2022/01/08 01:22:29;;;;;;;13.65;8.90;;;2.40;99.90;;;;;;2122902;27;20027;-74
2022/01/08 01:23:35;;;;;;;12.95;8.95;;;2.40;99.90;;;;;;2120694;27;20030;-72
2022/01/08 01:24:38;;;;;;;11.70;8.82;;;2.40;99.90;;;;;;2123048;27;20027;-71
2022/01/08 01:25:45;;;;;;;12.35;8.40;;;2.40;99.90;;;;;;2114890;28;20031;-71
2022/01/08 01:41:12;;;;;;;25.13;15.45;;;2.10;99.90;;;;;;2114441;28;20027;-72
2022/01/08 01:41:36;;;;;;;20.35;13.15;;;1.90;99.90;;;;;;2113093;28;20100;-69
2022/01/08 01:43:27;;;;;;;21.95;13.65;;;1.80;99.90;;;;;;2116113;28;20055;-71
2022/01/08 01:47:51;;;;;;;20.20;13.05;;;1.60;99.90;;;;;;2106656;28;20024;-72
2022/01/08 01:48:53;;;;;;;21.27;13.23;;;1.60;99.90;;;;;;2110303;28;20027;-71
2022/01/08 01:49:54;;;;;;;22.48;13.45;;;1.50;99.90;;;;;;2123528;27;20019;-70
2022/01/08 01:50:55;;;;;;;19.65;12.75;;;1.50;99.90;;;;;;2112000;28;20053;-70
2022/01/08 01:51:57;;;;;;;19.15;12.52;;;1.50;99.90;;;;;;2114198;28;20041;-71
2022/01/08 01:52:57;;;;;;;19.85;13.15;;;1.50;99.90;;;;;;2113239;28;20145;-71
2022/01/08 01:53:58;;;;;;;19.60;13.18;;;1.50;99.90;;;;;;2114675;28;20422;-72
2022/01/08 01:54:59;;;;;;;20.50;13.13;;;1.40;99.90;;;;;;2114932;28;20020;-71
2022/01/08 01:56:00;;;;;;;21.42;13.80;;;1.40;99.90;;;;;;2116205;28;20012;-71
2022/01/08 01:57:02;;;;;;;19.00;12.80;;;1.40;99.90;;;;;;2111772;28;20032;-70
2022/01/08 01:58:05;;;;;;;22.10;13.73;;;1.40;99.90;;;;;;2115335;28;20078;-73
2022/01/08 01:59:06;;;;;;;18.48;12.30;;;1.40;99.90;;;;;;2112458;27;20049;-70
2022/01/08 02:00:08;;;;;;;19.20;12.27;;;1.40;99.90;;;;;;2115318;28;20088;-72
2022/01/08 02:01:13;;;;;;;19.50;12.27;;;1.40;99.90;;;;;;2111605;28;20036;-71
2022/01/08 02:02:14;;;;;;;19.08;12.75;;;1.40;99.90;;;;;;2116773;28;20035;-71
2022/01/08 02:03:14;;;;;;;20.23;12.95;;;1.40;99.90;;;;;;2110965;28;20106;-73
2022/01/08 02:04:15;;;;;;;19.33;13.02;;;1.40;99.90;;;;;;2114914;28;20039;-73
2022/01/08 02:05:16;;;;;;;19.13;12.85;;;1.40;99.90;;;;;;2112228;28;20515;-70
2022/01/08 02:06:17;;;;;;;19.95;12.80;;;1.50;99.90;;;;;;2114511;28;20139;-70
2022/01/08 02:07:18;;;;;;;20.90;12.95;;;1.50;99.90;;;;;;2110157;28;20024;-70
2022/01/08 02:08:18;;;;;;;21.13;13.80;;;1.50;99.90;;;;;;2115576;28;20042;-70
2022/01/08 02:09:19;;;;;;;22.52;14.38;;;1.50;99.90;;;;;;2114654;28;20459;-72
2022/01/08 02:10:21;;;;;;;28.98;15.85;;;1.60;99.90;;;;;;2114409;28;20432;-72
2022/01/08 02:11:21;;;;;;;23.60;15.00;;;1.60;99.90;;;;;;2111381;28;20028;-72
2022/01/08 02:12:22;;;;;;;22.25;14.02;;;1.60;99.90;;;;;;2114126;28;20047;-72
2022/01/08 02:13:29;;;;;;;18.67;12.95;;;1.50;99.90;;;;;;2109690;28;20055;-72
2022/01/08 02:14:32;;;;;;;21.77;13.73;;;1.50;99.90;;;;;;2115066;28;20019;-72
2022/01/08 02:15:33;;;;;;;21.58;13.13;;;1.50;99.90;;;;;;2101379;28;20086;-73
2022/01/08 02:16:33;;;;;;;18.88;12.25;;;1.40;99.90;;;;;;2105406;28;20043;-72
2022/01/08 02:17:34;;;;;;;18.70;12.80;;;1.40;99.90;;;;;;2102854;28;20028;-72
2022/01/08 02:18:35;;;;;;;20.25;12.82;;;1.40;99.90;;;;;;2105172;28;20556;-72
2022/01/08 02:19:37;;;;;;;18.98;12.27;;;1.50;99.90;;;;;;2105734;28;20069;-73
2022/01/08 02:20:43;;;;;;;18.35;12.45;;;1.40;99.90;;;;;;2115739;28;20114;-72
2022/01/08 02:21:59;;;;;;;18.50;12.40;;;1.40;99.90;;;;;;2114820;28;20073;-71
2022/01/08 02:22:59;;;;;;;17.35;11.43;;;1.40;99.90;;;;;;2112792;28;20027;-71
2022/01/08 02:24:00;;;;;;;18.08;11.85;;;1.30;99.90;;;;;;2122873;27;20103;-72
2022/01/08 02:25:02;;;;;;;15.95;11.27;;;1.30;99.90;;;;;;2118744;27;20030;-72
2022/01/08 02:26:04;;;;;;;15.85;11.10;;;1.30;99.90;;;;;;2099194;28;20037;-72
2022/01/08 02:27:05;;;;;;;15.95;11.05;;;1.30;99.90;;;;;;2098481;28;20112;-71
2022/01/08 02:28:07;;;;;;;15.15;10.32;;;1.20;99.90;;;;;;2114546;28;20094;-73
2022/01/08 02:29:15;;;;;;;15.82;10.30;;;1.20;99.90;;;;;;2111246;28;20548;-72
2022/01/08 02:30:16;;;;;;;16.67;11.05;;;1.20;99.90;;;;;;2114860;28;20090;-72
2022/01/08 02:31:21;;;;;;;16.42;10.85;;;1.10;99.90;;;;;;2109583;28;20027;-73
2022/01/08 02:32:29;;;;;;;15.70;10.43;;;1.10;99.90;;;;;;2114940;28;20089;-72
2022/01/08 02:33:31;;;;;;;13.52;9.48;;;1.10;99.90;;;;;;2109583;28;20061;-70
2022/01/08 02:34:32;;;;;;;14.75;10.10;;;1.00;99.90;;;;;;2114061;28;20414;-73
2022/01/08 02:35:34;;;;;;;13.43;9.18;;;1.00;99.90;;;;;;2115397;28;20543;-70
2022/01/08 02:36:34;;;;;;;13.00;9.40;;;1.00;99.90;;;;;;2113676;27;20028;-72
2022/01/08 02:37:35;;;;;;;13.73;9.77;;;0.90;99.90;;;;;;2118565;27;20110;-71
2022/01/08 02:38:36;;;;;;;14.15;9.90;;;0.90;99.90;;;;;;2115870;28;20367;-70
2022/01/08 02:39:40;;;;;;;15.63;10.10;;;0.90;99.90;;;;;;2114858;28;20482;-72
2022/01/08 02:40:50;;;;;;;16.10;10.15;;;0.90;99.90;;;;;;2112598;28;20023;-73
2022/01/08 02:41:57;;;;;;;14.95;10.25;;;0.90;99.90;;;;;;2099554;28;20044;-73
2022/01/08 02:43:04;;;;;;;14.70;10.05;;;0.90;99.90;;;;;;2098129;28;20496;-72
2022/01/08 02:44:06;;;;;;;14.82;9.93;;;0.80;99.90;;;;;;2115166;28;20050;-72
2022/01/08 02:45:08;;;;;;;15.60;10.60;;;0.80;99.90;;;;;;2109500;28;20463;-70
2022/01/08 02:46:09;;;;;;;16.52;10.77;;;0.80;99.90;;;;;;2105496;28;20495;-73
2022/01/08 02:47:13;;;;;;;15.63;10.80;;;0.80;99.90;;;;;;2111089;28;20054;-72
2022/01/08 02:48:15;;;;;;;15.13;9.98;;;0.80;99.90;;;;;;2114458;28;20085;-71
2022/01/08 02:49:16;;;;;;;15.38;10.07;;;0.80;99.90;;;;;;2109967;28;20504;-71
2022/01/08 02:50:17;;;;;;;14.40;9.80;;;0.80;99.90;;;;;;2116017;27;20024;-71
2022/01/08 02:51:17;;;;;;;13.30;9.48;;;0.80;99.90;;;;;;2110365;28;20024;-70
2022/01/08 02:52:18;;;;;;;14.48;10.05;;;0.80;99.90;;;;;;2105170;28;20036;-71
2022/01/08 02:53:19;;;;;;;15.68;10.57;;;0.80;99.90;;;;;;2102582;28;20035;-70
2022/01/08 02:54:20;;;;;;;14.40;9.77;;;0.80;99.90;;;;;;2108258;28;20027;-72
2022/01/08 02:55:21;;;;;;;17.35;10.55;;;0.80;99.90;;;;;;2109258;28;20047;-72
2022/01/08 02:56:22;;;;;;;18.13;11.07;;;0.80;99.90;;;;;;2115580;28;20028;-73
2022/01/08 02:57:23;;;;;;;16.77;10.82;;;0.80;99.90;;;;;;2109832;28;20489;-72
2022/01/08 02:58:26;;;;;;;17.98;11.68;;;0.80;99.90;;;;;;2113742;28;20042;-73
2022/01/08 02:59:27;;;;;;;16.65;11.30;;;0.80;99.90;;;;;;2110365;28;20080;-71
2022/01/08 03:00:28;;;;;;;17.88;11.52;;;0.80;99.90;;;;;;2114158;28;20026;-71
2022/01/08 03:01:29;;;;;;;15.38;10.75;;;0.80;99.90;;;;;;2106888;28;20040;-70
2022/01/08 03:02:30;;;;;;;15.40;10.60;;;0.80;99.90;;;;;;2111257;28;20023;-73
2022/01/08 03:03:31;;;;;;;16.20;10.82;;;0.80;99.90;;;;;;2109528;28;20032;-73
2022/01/08 03:04:31;;;;;;;15.05;10.30;;;0.80;99.90;;;;;;2113609;28;20614;-69
2022/01/08 03:05:32;;;;;;;15.35;10.02;;;0.80;99.90;;;;;;2112531;28;20061;-70
2022/01/08 03:06:34;;;;;;;15.00;10.00;;;0.70;99.90;;;;;;2114249;28;20020;-70
2022/01/08 03:07:35;;;;;;;14.35;10.13;;;0.70;99.90;;;;;;2110647;28;20020;-71
2022/01/08 03:08:35;;;;;;;13.55;9.63;;;0.70;99.90;;;;;;2114803;28;20139;-70
2022/01/08 03:09:40;;;;;;;15.88;10.30;;;0.70;99.90;;;;;;2110692;28;20019;-70
2022/01/08 03:10:42;;;;;;;16.13;11.15;;;0.70;99.90;;;;;;2113164;28;20026;-72
2022/01/08 03:11:43;;;;;;;14.68;10.07;;;0.60;99.90;;;;;;2112294;28;20019;-71
2022/01/08 03:12:44;;;;;;;15.75;10.32;;;0.60;99.90;;;;;;2111693;28;20107;-72
2022/01/08 03:13:45;;;;;;;16.00;10.60;;;0.60;99.90;;;;;;2111528;28;20529;-71
2022/01/08 03:14:46;;;;;;;14.60;10.23;;;0.60;99.90;;;;;;2114469;28;20138;-69
2022/01/08 03:15:47;;;;;;;15.43;10.40;;;0.60;99.90;;;;;;2113681;28;20019;-70
2022/01/08 03:16:49;;;;;;;16.63;10.85;;;0.50;99.90;;;;;;2112550;28;20020;-70
2022/01/08 03:17:50;;;;;;;16.55;10.48;;;0.50;99.90;;;;;;2113287;28;20412;-70
2022/01/08 03:18:51;;;;;;;16.95;11.30;;;0.50;99.90;;;;;;2110780;28;20474;-70
2022/01/08 03:19:54;;;;;;;16.35;10.20;;;0.50;99.90;;;;;;2113160;28;20032;-70
2022/01/08 03:21:02;;;;;;;15.77;10.57;;;0.50;99.90;;;;;;2114180;28;20417;-70
2022/01/08 03:22:04;;;;;;;17.23;11.20;;;0.40;99.90;;;;;;2105548;28;20024;-70
2022/01/08 03:23:13;;;;;;;17.15;11.10;;;0.40;99.90;;;;;;2111034;28;20032;-70
2022/01/08 03:24:16;;;;;;;15.75;10.65;;;0.40;99.90;;;;;;2107103;28;20072;-71
2022/01/08 03:25:17;;;;;;;16.15;11.00;;;0.40;99.90;;;;;;2101668;28;20016;-70
2022/01/08 03:26:21;;;;;;;16.70;11.40;;;0.40;99.90;;;;;;2107217;28;20028;-70
2022/01/08 03:27:22;;;;;;;17.92;11.45;;;0.40;99.90;;;;;;2109473;28;20017;-72
2022/01/08 03:28:22;;;;;;;18.10;11.60;;;0.40;99.90;;;;;;2114052;28;20024;-71
2022/01/08 03:29:25;;;;;;;17.77;11.52;;;0.30;99.90;;;;;;2101574;28;20789;-72
2022/01/08 03:30:28;;;;;;;19.55;12.63;;;0.30;99.90;;;;;;2106135;28;20578;-70
2022/01/08 03:31:28;;;;;;;17.45;11.85;;;0.30;99.90;;;;;;2105893;28;20039;-70
2022/01/08 03:32:29;;;;;;;18.88;11.90;;;0.30;99.90;;;;;;2094230;28;20066;-72
2022/01/08 03:33:30;;;;;;;18.63;11.90;;;0.30;99.90;;;;;;2100683;28;20506;-70
2022/01/08 03:34:31;;;;;;;17.88;11.63;;;0.30;99.90;;;;;;2114167;28;20460;-72
2022/01/08 03:35:33;;;;;;;18.58;11.85;;;0.30;99.90;;;;;;2110534;28;20057;-72
2022/01/08 03:36:34;;;;;;;19.65;12.15;;;0.20;99.90;;;;;;2113329;28;20022;-70
2022/01/08 03:37:34;;;;;;;18.23;11.70;;;0.30;99.90;;;;;;2109634;28;20055;-70
2022/01/08 03:38:35;;;;;;;17.65;11.27;;;0.20;99.90;;;;;;2114203;28;20031;-70
2022/01/08 03:39:37;;;;;;;17.25;11.07;;;0.20;99.90;;;;;;2110542;28;20104;-71
2022/01/08 03:40:37;;;;;;;16.73;11.13;;;0.20;99.90;;;;;;2113519;28;20023;-72
2022/01/08 03:41:38;;;;;;;19.80;11.85;;;0.20;99.90;;;;;;2111947;28;20091;-70
2022/01/08 03:42:39;;;;;;;17.08;11.30;;;0.20;99.90;;;;;;2112795;28;20036;-70
2022/01/08 03:43:40;;;;;;;17.67;11.52;;;0.20;99.90;;;;;;2101968;28;20399;-70
2022/01/08 03:44:41;;;;;;;16.30;10.82;;;0.20;99.90;;;;;;2105081;28;20157;-70
2022/01/08 03:45:41;;;;;;;15.93;10.85;;;0.20;99.90;;;;;;2102098;28;20043;-70
2022/01/08 03:46:45;;;;;;;17.58;11.20;;;0.10;99.90;;;;;;2102643;28;20126;-70
2022/01/08 03:50:02;;;;;;;16.80;10.98;;;0.10;99.90;;;;;;2114989;28;20100;-70
2022/01/08 03:51:06;;;;;;;16.67;11.05;;;0.10;99.90;;;;;;2105282;28;20040;-70
2022/01/08 03:52:06;;;;;;;17.05;10.43;;;0.10;99.90;;;;;;2113149;28;20148;-72
2022/01/08 03:53:07;;;;;;;17.00;10.75;;;0.10;99.90;;;;;;2102112;28;20028;-72
2022/01/08 03:54:08;;;;;;;14.75;9.93;;;0.10;99.90;;;;;;2105997;28;20739;-70
2022/01/08 03:55:09;;;;;;;16.75;10.93;;;0.10;99.90;;;;;;2109719;28;20060;-70
2022/01/08 03:56:10;;;;;;;16.65;10.68;;;0.10;99.90;;;;;;2114671;28;20058;-70
2022/01/08 03:57:10;;;;;;;15.57;10.07;;;0.20;99.90;;;;;;2108234;28;20039;-70
2022/01/08 03:58:11;;;;;;;13.85;9.90;;;0.20;99.90;;;;;;2106137;28;20020;-71
2022/01/08 03:59:12;;;;;;;15.73;9.55;;;0.20;99.90;;;;;;2107119;28;20024;-70
2022/01/08 04:00:13;;;;;;;15.13;10.23;;;0.20;99.90;;;;;;2113427;28;20024;-70
2022/01/08 04:01:14;;;;;;;15.55;9.93;;;0.30;99.90;;;;;;2109059;28;20058;-72
2022/01/08 04:02:15;;;;;;;13.60;8.90;;;0.30;99.90;;;;;;2114739;28;20023;-70
2022/01/08 04:03:18;;;;;;;13.32;9.35;;;0.40;99.90;;;;;;2100631;28;20074;-72
2022/01/08 04:04:19;;;;;;;12.77;9.07;;;0.50;99.90;;;;;;2105181;28;20483;-72
2022/01/08 04:05:20;;;;;;;13.45;8.93;;;0.60;99.90;;;;;;2110676;28;20058;-70
2022/01/08 04:06:21;;;;;;;12.02;8.45;;;0.60;99.90;;;;;;2122602;27;20028;-70
2022/01/08 04:07:22;;;;;;;10.40;7.50;;;0.70;99.90;;;;;;2109806;28;20070;-70
2022/01/08 04:08:23;;;;;;;9.50;7.18;;;0.90;99.90;;;;;;2116534;28;20055;-71
2022/01/08 04:09:24;;;;;;;9.65;7.25;;;0.90;99.90;;;;;;2115192;28;20020;-71
2022/01/08 04:10:24;;;;;;;8.77;6.75;;;1.10;99.90;;;;;;2115226;28;20051;-70
2022/01/08 04:11:26;;;;;;;9.20;6.80;;;1.20;99.90;;;;;;2112153;28;20023;-70
2022/01/08 04:13:08;;;;;;;7.38;6.15;;;1.20;99.90;;;;;;2115299;28;20024;-72
2022/01/08 04:13:55;;;;;;;7.47;6.07;;;1.40;99.90;;;;;;2113638;28;20023;-71
2022/01/08 04:15:05;;;;;;;7.60;5.80;;;1.60;99.90;;;;;;2112186;28;20020;-72
2022/01/08 04:16:12;;;;;;;8.23;5.82;;;1.70;99.90;;;;;;2106769;28;20012;-71
2022/01/08 04:17:14;;;;;;;6.65;5.60;;;1.90;99.90;;;;;;2109773;27;20110;-71
2022/01/08 04:18:15;;;;;;;8.13;5.78;;;2.00;99.90;;;;;;2115264;28;20027;-70
2022/01/08 04:19:16;;;;;;;6.43;5.47;;;2.00;99.90;;;;;;2118874;27;20023;-71
2022/01/08 04:20:18;;;;;;;6.75;5.43;;;2.10;99.90;;;;;;2125395;27;20130;-72
2022/01/08 04:22:24;;;;;;;6.25;4.97;;;2.20;99.90;;;;;;2115097;28;20032;-72
2022/01/08 04:23:25;;;;;;;7.10;5.40;;;2.20;99.90;;;;;;2120418;27;20510;-71
2022/01/08 04:24:28;;;;;;;6.25;5.00;;;2.30;99.90;;;;;;2123752;27;20078;-71
2022/01/08 04:25:30;;;;;;;6.50;5.20;;;2.30;99.90;;;;;;2107780;27;20032;-72
2022/01/08 04:26:30;;;;;;;6.00;4.85;;;2.30;99.90;;;;;;2112576;28;20479;-69
2022/01/08 04:27:31;;;;;;;6.10;4.88;;;2.40;99.90;;;;;;2119827;27;20020;-71
2022/01/08 04:28:32;;;;;;;7.22;5.50;;;2.40;99.90;;;;;;2115806;28;20031;-70
2022/01/08 04:29:33;;;;;;;6.25;4.93;;;2.40;99.90;;;;;;2112550;28;20155;-72
2022/01/08 04:30:34;;;;;;;6.68;5.00;;;2.50;99.90;;;;;;2106029;28;20028;-72
2022/01/08 04:31:35;;;;;;;6.03;5.22;;;2.50;99.90;;;;;;2102181;28;20028;-71
2022/01/08 04:32:35;;;;;;;6.50;4.80;;;2.50;99.90;;;;;;2112331;28;20394;-71
2022/01/08 04:33:36;;;;;;;5.93;4.70;;;2.50;99.90;;;;;;2119505;27;20027;-70
2022/01/08 04:34:37;;;;;;;6.15;4.70;;;2.50;99.90;;;;;;2113981;28;20020;-70
2022/01/08 04:35:38;;;;;;;6.22;4.78;;;2.50;99.90;;;;;;2107899;28;20116;-71
2022/01/08 04:36:38;;;;;;;6.07;4.80;;;2.50;99.90;;;;;;2114498;27;20464;-73
2022/01/08 04:37:39;;;;;;;5.28;4.68;;;2.50;99.90;;;;;;2113396;28;20019;-70
2022/01/08 04:38:40;;;;;;;5.65;5.00;;;2.60;99.90;;;;;;2115905;28;20024;-71
2022/01/08 04:39:41;;;;;;;5.80;4.82;;;2.60;99.90;;;;;;2113349;28;20031;-71
2022/01/08 04:40:43;;;;;;;6.40;5.00;;;2.60;99.90;;;;;;2114249;28;20035;-71
2022/01/08 04:41:44;;;;;;;6.38;4.95;;;2.50;99.90;;;;;;2099222;28;20477;-72
2022/01/08 04:42:45;;;;;;;7.43;4.90;;;2.60;99.90;;;;;;2106616;28;20032;-69
2022/01/08 04:43:45;;;;;;;5.90;4.90;;;2.60;99.90;;;;;;2112443;28;20061;-73
2022/01/08 04:44:46;;;;;;;6.45;4.90;;;2.60;99.90;;;;;;2114368;28;20499;-72
2022/01/08 04:45:49;;;;;;;6.35;5.00;;;2.60;99.90;;;;;;2115343;28;20436;-73
2022/01/08 04:46:49;;;;;;;6.13;4.88;;;2.60;99.90;;;;;;2114494;28;20643;-71
2022/01/08 04:47:50;;;;;;;6.75;5.00;;;2.50;99.90;;;;;;2114424;28;20034;-71
2022/01/08 04:48:51;;;;;;;5.30;4.65;;;2.60;99.90;;;;;;2114446;28;20024;-70
2022/01/08 04:49:51;;;;;;;7.80;5.00;;;2.50;99.90;;;;;;2115912;28;20045;-69
2022/01/08 04:50:52;;;;;;;7.55;5.47;;;2.50;99.90;;;;;;2123861;27;20042;-71
2022/01/08 04:51:53;;;;;;;6.18;5.20;;;2.60;99.90;;;;;;2123272;27;20026;-70
2022/01/08 04:52:55;;;;;;;6.38;5.30;;;2.60;99.90;;;;;;2115545;28;20019;-69
2022/01/08 04:53:56;;;;;;;7.63;5.90;;;2.60;99.90;;;;;;2114966;28;20034;-70
2022/01/08 04:54:56;;;;;;;6.65;5.60;;;2.60;99.90;;;;;;2114438;28;20028;-70
2022/01/08 04:55:57;;;;;;;7.18;5.65;;;2.60;99.90;;;;;;2114843;28;20103;-70
2022/01/08 04:56:58;;;;;;;8.73;6.35;;;2.60;99.90;;;;;;2114391;28;20107;-71
2022/01/08 04:57:58;;;;;;;7.72;5.70;;;2.60;99.90;;;;;;2114597;28;20023;-70
2022/01/08 04:58:59;;;;;;;9.18;5.88;;;2.60;99.90;;;;;;2114679;28;20103;-70
2022/01/08 04:59:59;;;;;;;9.23;6.05;;;2.50;99.90;;;;;;2115969;28;20066;-69
2022/01/08 05:01:00;;;;;;;8.68;5.75;;;2.50;99.90;;;;;;2123595;27;20015;-72
2022/01/08 05:02:01;;;;;;;8.15;5.93;;;2.50;99.90;;;;;;2114260;28;20612;-70
2022/01/08 05:03:01;;;;;;;8.25;5.88;;;2.50;99.90;;;;;;2114377;28;20553;-70
2022/01/08 05:04:02;;;;;;;6.93;5.40;;;2.50;99.90;;;;;;2114214;28;20038;-71
2022/01/08 05:05:03;;;;;;;6.63;5.13;;;2.50;99.90;;;;;;2122663;27;20020;-70
2022/01/08 05:06:04;;;;;;;7.40;5.63;;;2.50;99.90;;;;;;2122778;27;20023;-70
2022/01/08 05:07:04;;;;;;;7.80;5.40;;;2.50;99.90;;;;;;2114450;28;20047;-70
2022/01/08 05:08:05;;;;;;;6.90;5.63;;;2.40;99.90;;;;;;2114253;28;20024;-73
2022/01/08 05:09:06;;;;;;;7.75;5.45;;;2.40;99.90;;;;;;2113568;28;20680;-72
2022/01/08 05:10:07;;;;;;;6.15;5.25;;;2.40;99.90;;;;;;2114245;28;20051;-72
2022/01/08 05:11:08;;;;;;;6.45;5.22;;;2.30;99.90;;;;;;2122760;27;20745;-72
2022/01/08 05:12:09;;;;;;;7.18;5.40;;;2.40;99.90;;;;;;2122289;27;20035;-72
2022/01/08 05:13:09;;;;;;;7.30;5.78;;;2.30;99.90;;;;;;2114396;28;20023;-72
2022/01/08 05:14:11;;;;;;;6.60;5.45;;;2.30;99.90;;;;;;2114397;28;20028;-71
2022/01/08 05:15:11;;;;;;;6.60;5.28;;;2.40;99.90;;;;;;2114355;28;20020;-72
2022/01/08 05:16:12;;;;;;;6.40;5.10;;;2.40;99.90;;;;;;2114746;28;20067;-72
2022/01/08 05:17:14;;;;;;;7.03;5.15;;;2.40;99.90;;;;;;2114347;28;20038;-72
2022/01/08 05:18:15;;;;;;;6.75;5.25;;;2.30;99.90;;;;;;2114221;28;20036;-72
2022/01/08 05:19:22;;;;;;;5.25;4.63;;;2.30;99.90;;;;;;2113147;28;20481;-72
2022/01/08 05:20:25;;;;;;;6.38;4.88;;;2.30;99.90;;;;;;2114249;28;20103;-72
2022/01/08 05:21:28;;;;;;;6.15;4.78;;;2.30;99.90;;;;;;2114447;28;20027;-72
2022/01/08 05:22:39;;;;;;;5.32;4.43;;;2.20;99.90;;;;;;2115047;28;20821;-74
2022/01/08 05:23:40;;;;;;;5.60;4.65;;;2.20;99.90;;;;;;2115155;27;20040;-74
2022/01/08 05:24:41;;;;;;;6.82;4.90;;;2.20;99.90;;;;;;2114945;28;20081;-72
2022/01/08 05:25:41;;;;;;;6.72;5.20;;;2.20;99.90;;;;;;2114675;28;20035;-73
2022/01/08 05:26:42;;;;;;;6.53;4.88;;;2.20;99.90;;;;;;2114905;28;20044;-72
2022/01/08 05:27:43;;;;;;;7.15;5.60;;;2.20;99.90;;;;;;2122642;27;20031;-71
2022/01/08 05:28:45;;;;;;;7.03;5.85;;;2.20;99.90;;;;;;2122077;27;20035;-73
2022/01/08 05:29:48;;;;;;;9.02;6.65;;;2.20;99.90;;;;;;2114542;28;20050;-73
2022/01/08 05:30:48;;;;;;;9.40;7.00;;;2.10;99.90;;;;;;2113984;28;20111;-73
2022/01/08 05:31:49;;;;;;;9.55;7.25;;;2.10;99.90;;;;;;2113642;28;20032;-73
2022/01/08 05:32:50;;;;;;;10.38;7.22;;;2.10;99.90;;;;;;2114013;28;20024;-72
2022/01/08 05:33:51;;;;;;;9.93;7.43;;;2.10;99.90;;;;;;2114693;28;20595;-71
2022/01/08 05:34:54;;;;;;;10.98;7.78;;;2.10;99.90;;;;;;2114305;28;20023;-73
2022/01/08 05:35:55;;;;;;;10.88;7.72;;;2.10;99.90;;;;;;2114561;28;20028;-73
2022/01/08 05:36:55;;;;;;;11.27;7.60;;;2.00;99.90;;;;;;2114579;28;20019;-72
2022/01/08 05:37:56;;;;;;;12.25;8.45;;;2.00;99.90;;;;;;2114492;28;20027;-73
2022/01/08 05:38:57;;;;;;;12.73;9.15;;;2.00;99.90;;;;;;2113201;28;20119;-73
2022/01/08 05:39:57;;;;;;;14.43;10.02;;;2.00;99.90;;;;;;2114034;28;20031;-73
2022/01/08 05:40:58;;;;;;;14.38;10.00;;;2.00;99.90;;;;;;2114668;28;20042;-72